Latest Weather Observations for Mount Gellibrand

IDV60801

Issued at 3:42 pm EDT Tuesday 29 November 2022 (issued every 10 minutes, with the page automatically refreshed every 10 minutes)

About weather observations | Map of weather stations | Latest weather observations for VIC | Other Formats
Station Details ID: 090035 Name: MOUNT GELLIBRAND Lat: -38.23 Lon: 143.79 Height: 261.0 m
Data from the previous 72 hours. | See also: Recent months at Mount Gellibrand
Date/Time
EDT
Temp
°C
App
Temp
°C
Dew
Point
°C
Rel
Hum
%
Delta-T
°C
Wind Press
QNH
hPa
Press
MSL
hPa
Rain since
9am
mm
Dir  Spd
km/h
Gust
km/h
Spd
kts
Gust
kts
29/03:30pm 16.8 13.0 9.2 61 4.0 WSW 19 26 10 14 1016.8 1016.4 0.4
29/03:00pm 16.6 12.3 9.5 63 3.7 WSW 22 32 12 17 1016.9 1016.5 0.4
29/02:30pm 15.9 11.0 9.8 67 3.2 WSW 26 32 14 17 1016.9 1016.5 0.4
29/02:00pm 15.4 10.9 10.0 70 2.9 WSW 24 33 13 18 1016.9 1016.5 0.0
29/01:30pm 15.9 12.2 10.2 69 3.0 WSW 20 30 11 16 1016.9 1016.5 0.0
29/01:00pm 15.7 12.5 11.3 75 2.4 SW 19 24 10 13 1016.9 1016.5 0.0
29/12:30pm 13.9 7.7 9.3 74 2.4 WSW 32 37 17 20 1016.8 1016.4 0.0
29/12:00pm 13.9 10.2 9.3 74 2.4 WSW 19 24 10 13 1016.8 1016.4 0.0
29/11:30am 14.1 9.7 10.3 78 2.0 W 24 35 13 19 1016.5 1016.1 0.0
29/11:00am 14.0 11.1 11.0 82 1.6 SW 17 28 9 15 1016.6 1016.2 0.0
29/10:30am 13.6 9.3 9.5 76 2.1 WSW 22 30 12 16 1016.4 1016.0 0.0
29/10:00am 13.6 9.8 11.0 84 1.4 W 22 32 12 17 1016.1 1015.7 0.0
29/09:30am 12.8 8.2 10.9 88 1.0 WSW 26 35 14 19 1015.9 1015.5 0.0
29/09:00am 12.9 9.3 12.9 100 0.0 WSW 24 33 13 18 1015.6 1015.3 0.0
29/08:30am 11.5 7.8 11.5 100 0.0 WSW 22 30 12 16 1015.1 1014.8 0.0
29/08:00am 11.2 8.7 11.2 100 0.0 W 15 20 8 11 1014.7 1014.4 0.0
29/07:30am 10.1 6.6 10.1 100 0.0 W 19 26 10 14 1014.1 1013.7 0.0
29/07:00am 9.6 5.9 9.6 100 0.0 W 19 24 10 13 1013.5 1013.1 0.0
29/06:30am 9.2 5.8 9.2 100 0.0 W 17 22 9 12 1013.3 1012.9 0.0
29/06:00am 9.0 5.6 9.0 100 0.0 W 17 24 9 13 1012.9 1012.5 0.0
29/05:30am 8.9 5.4 8.9 100 0.0 W 17 20 9 11 1012.6 1012.2 0.0
29/05:00am 9.2 5.2 9.2 100 0.0 WSW 20 24 11 13 1012.2 1011.8 0.0
29/04:30am 9.4 4.7 9.4 100 0.0 WSW 24 32 13 17 1011.7 1011.4 0.0
29/04:00am 9.3 5.4 9.3 100 0.0 WSW 20 28 11 15 1011.5 1011.2 0.0
29/03:30am 9.8 5.2 9.8 100 0.0 WSW 24 30 13 16 1011.2 1010.9 0.0
29/03:00am 10.2 6.7 10.2 100 0.0 W 19 28 10 15 1011.1 1010.7 0.0
29/02:30am 10.1 6.0 10.1 100 0.0 W 22 32 12 17 1011.2 1010.9 0.0
29/02:00am 10.3 5.9 10.3 100 0.0 W 24 35 13 19 1011.1 1010.7 0.0
29/01:30am 10.3 4.7 10.3 100 0.0 WSW 30 43 16 23 1011.0 1010.6 0.0
29/01:00am 10.4 5.2 10.4 100 0.0 W 28 37 15 20 1010.7 1010.3 0.0
29/12:30am 10.5 5.0 10.5 100 0.0 W 30 39 16 21 1010.5 1010.1 0.0
29/12:00am 10.3 4.4 10.3 100 0.0 W 32 41 17 22 1010.5 1010.1 0.0
 
Date/Time
EDT
Temp
°C
App
Temp
°C
Dew
Point
°C
Rel
Hum
%
Delta-T
°C
Wind Press
QNH
hPa
Press
MSL
hPa
Rain since
9am
mm
Dir  Spd
km/h
Gust
km/h
Spd
kts
Gust
kts
28/11:30pm 10.5 4.4 10.5 100 0.0 WNW 33 41 18 22 1010.3 1009.9 0.0
28/11:00pm 10.4 4.5 10.4 100 0.0 W 32 41 17 22 1010.2 1009.8 0.0
28/10:30pm 10.8 4.0 10.8 100 0.0 W 37 46 20 25 1010.0 1009.6 0.0
28/10:00pm 10.8 4.8 10.8 100 0.0 W 33 44 18 24 1009.6 1009.2 0.0
28/09:30pm 10.3 5.5 10.3 100 0.0 W 26 33 14 18 1009.5 1009.1 0.0
28/09:00pm 10.9 4.6 10.9 100 0.0 W 35 50 19 27 1009.1 1008.7 0.0
28/08:41pm 11.2 5.9 11.2 100 0.0 W 30 52 16 28 1008.9 1008.5 0.0
28/08:30pm 11.2 4.9 11.2 100 0.0 W 35 46 19 25 1008.8 1008.4 0.0
28/08:00pm 12.0 6.5 12.0 100 0.0 W 32 48 17 26 1008.4 1008.0 0.0
28/07:50pm 12.1 7.1 12.1 100 0.0 W 30 50 16 27 1008.2 1007.8 0.0
28/07:30pm 12.6 8.1 12.6 100 0.0 W 28 37 15 20 1008.1 1007.7 0.0
28/07:08pm 12.3 7.3 12.3 100 0.0 W 30 48 16 26 1007.7 1007.3 0.0
28/07:00pm 12.4 8.2 12.4 100 0.0 W 26 33 14 18 1007.9 1007.4 0.0
28/06:30pm 12.1 6.7 12.1 100 0.0 W 32 50 17 27 1007.6 1007.2 0.0
28/06:29pm 12.0 6.5 12.0 100 0.0 W 32 50 17 27 1007.6 1007.2 0.0
28/06:00pm 12.9 7.7 12.9 100 0.0 W 32 39 17 21 1007.3 1006.9 0.0
28/05:46pm 12.8 7.0 12.8 100 0.0 W 35 54 19 29 1007.2 1006.8 0.0
28/05:30pm 12.9 6.4 11.6 92 0.7 W 37 57 20 31 1007.1 1006.7 0.0
28/05:00pm 14.4 9.1 11.4 82 1.6 W 30 39 16 21 1007.2 1006.8 0.0
28/04:30pm 13.9 7.8 10.5 80 1.8 W 33 43 18 23 1007.3 1006.9 0.0
28/04:00pm 14.2 8.1 10.6 79 1.9 W 33 43 18 23 1007.2 1006.8 0.0
28/03:30pm 15.3 10.6 13.3 88 1.1 WNW 30 37 16 20 1007.4 1007.0 0.0
28/03:00pm 12.4 6.9 12.4 100 0.0 WNW 33 46 18 25 1007.7 1007.3 0.0
28/02:30pm 14.6 10.5 13.8 95 0.5 WNW 28 37 15 20 1008.0 1007.6 0.0
28/02:00pm 12.7 5.9 10.6 87 1.1 WNW 37 50 20 27 1008.1 1007.7 0.0
28/01:53pm 13.1 7.5 10.3 83 1.5 WNW 30 50 16 27 1008.0 1007.6 0.0
28/01:30pm 12.6 5.6 10.0 84 1.4 WNW 37 46 20 25 1008.3 1007.9 0.0
28/01:00pm 13.4 7.0 9.5 77 2.0 WNW 33 43 18 23 1008.2 1007.8 0.0
28/12:30pm 13.6 7.4 9.3 75 2.2 WNW 32 41 17 22 1008.3 1007.9 0.0
28/12:00pm 12.5 7.2 9.7 83 1.4 WNW 28 41 15 22 1008.5 1008.1 0.0
28/11:30am 13.4 8.9 10.2 81 1.7 WNW 24 33 13 18 1008.7 1008.3 0.0
28/11:00am 11.7 8.3 11.4 98 0.2 W 20 37 11 20 1008.7 1008.3 0.0
28/10:30am 11.4 6.5 10.0 91 0.7 WNW 26 33 14 18 1008.8 1008.4 0.0
28/10:00am 11.9 5.7 10.1 89 0.9 WNW 33 41 18 22 1008.8 1008.4 0.0
28/09:30am 11.2 6.3 11.2 100 0.0 WNW 28 35 15 19 1008.6 1008.2 0.0
28/09:00am 10.4 5.2 10.4 100 0.0 WNW 28 37 15 20 1008.5 1008.1 0.0
28/08:30am 10.2 6.5 10.2 100 0.0 WNW 20 28 11 15 1008.4 1008.0 -
28/08:00am 8.8 4.7 8.8 100 0.0 WNW 20 28 11 15 1008.2 1007.8 -
28/07:30am 7.6 4.2 7.6 100 0.0 WNW 15 17 8 9 1008.1 1007.7 -
28/07:00am 7.6 3.4 7.6 100 0.0 WNW 19 24 10 13 1008.0 1007.6 -
28/06:30am 6.7 2.1 6.7 100 0.0 WNW 20 26 11 14 1007.7 1007.3 -
28/06:00am 7.0 2.7 7.0 100 0.0 WNW 19 22 10 12 1007.4 1007.0 -
28/05:30am 7.3 3.1 7.3 100 0.0 WNW 19 24 10 13 1007.3 1006.9 -
28/05:00am 7.1 2.6 7.1 100 0.0 WNW 20 26 11 14 1007.1 1006.7 -
28/04:30am 7.4 3.2 7.4 100 0.0 WNW 19 24 10 13 1006.9 1006.5 -
28/04:00am 7.4 3.0 7.4 100 0.0 WNW 20 26 11 14 1006.9 1006.5 -
28/03:30am 7.6 3.2 7.6 100 0.0 WNW 20 28 11 15 1006.9 1006.5 -
28/03:00am 7.4 3.2 7.4 100 0.0 WNW 19 22 10 12 1006.9 1006.5 0.0
28/02:30am 7.4 3.9 7.4 100 0.0 W 15 19 8 10 1006.8 1006.4 -
28/02:00am 7.7 4.7 7.7 100 0.0 W 13 17 7 9 1007.0 1006.6 -
28/01:30am 8.1 4.4 8.1 100 0.0 W 17 22 9 12 1007.4 1007.0 -
28/01:00am 7.7 4.7 7.7 100 0.0 W 13 19 7 10 1007.6 1007.2 -
28/12:30am 7.5 4.8 7.5 100 0.0 W 11 15 6 8 1007.7 1007.3 -
28/12:00am 7.4 4.3 7.4 100 0.0 WSW 13 17 7 9 1008.0 1007.6 -
 
Date/Time
EDT
Temp
°C
App
Temp
°C
Dew
Point
°C
Rel
Hum
%
Delta-T
°C
Wind Press
QNH
hPa
Press
MSL
hPa
Rain since
9am
mm
Dir  Spd
km/h
Gust
km/h
Spd
kts
Gust
kts
27/11:30pm 8.0 3.9 8.0 100 0.0 WSW 19 22 10 12 1008.0 1007.6 -
27/11:00pm 8.2 4.2 8.2 100 0.0 WSW 19 24 10 13 1008.0 1007.6 -
27/10:30pm 8.3 4.3 8.3 100 0.0 WSW 19 22 10 12 1008.0 1007.6 -
27/10:00pm 8.5 4.4 8.5 100 0.0 WSW 20 26 11 14 1008.0 1007.6 -
27/09:30pm 8.3 5.1 8.3 100 0.0 W 15 20 8 11 1007.9 1007.4 -
27/09:00pm 8.5 4.6 8.5 100 0.0 WSW 19 22 10 12 1007.5 1007.1 -
27/08:30pm 9.3 5.3 9.2 99 0.1 WSW 20 28 11 15 1007.2 1006.8 -
27/08:00pm 10.2 5.3 8.5 89 0.8 WSW 24 32 13 17 1006.8 1006.4 -
27/07:30pm 10.4 4.7 8.2 86 1.1 SW 28 35 15 19 1006.4 1006.0 -
27/07:00pm 11.2 5.1 8.2 82 1.5 SW 30 39 16 21 1006.1 1005.7 -
27/06:30pm 12.0 4.5 6.5 69 2.6 WSW 35 44 19 24 1005.6 1005.2 -
27/06:00pm 13.5 5.7 6.6 63 3.4 WSW 37 48 20 26 1005.2 1004.8 -
27/05:30pm 13.3 6.1 7.7 69 2.8 WSW 35 54 19 29 1005.1 1004.7 -
27/05:00pm 12.9 6.6 9.7 81 1.7 WSW 33 43 18 23 1005.0 1004.6 -
27/04:30pm 11.7 4.4 11.7 100 0.0 WSW 41 52 22 28 1004.9 1004.5 -
27/04:15pm 11.3 6.0 11.3 100 0.0 WSW 30 52 16 28 1004.9 1004.5 -
27/04:00pm 11.2 3.2 11.2 100 0.0 WSW 44 59 24 32 1004.8 1004.4 0.0
27/03:48pm 13.3 7.6 11.2 87 1.1 W 32 52 17 28 1004.6 1004.1 0.0
27/03:30pm 13.6 8.6 11.0 84 1.4 WSW 28 41 15 22 1004.6 1004.1 0.0
27/03:00pm 13.3 6.8 10.5 83 1.5 WSW 35 48 19 26 1004.4 1003.9 0.0
27/02:30pm 14.0 8.1 11.2 83 1.5 WSW 33 48 18 26 1004.2 1003.7 0.0
27/02:00pm 13.5 7.5 10.9 84 1.4 WSW 33 50 18 27 1004.4 1003.9 0.0
27/01:47pm 14.5 8.3 11.3 81 1.7 W 35 50 19 27 1004.2 1003.7 0.0
27/01:30pm 13.9 10.1 12.5 91 0.8 W 24 33 13 18 1004.2 1003.7 0.0
27/01:00pm 16.0 12.0 12.9 82 1.7 W 26 33 14 18 1004.3 1003.8 0.0
27/12:30pm 14.1 10.6 12.1 88 1.1 W 22 32 12 17 1004.7 1004.3 0.0
27/12:00pm 14.8 11.3 13.5 92 0.7 WSW 24 37 13 20 1004.7 1004.3 0.0
27/11:40am 12.4 6.9 12.4 100 0.0 W 33 43 18 23 1004.7 1004.3 0.0
27/11:30am 13.1 6.9 12.6 97 0.3 WNW 37 43 20 23 1004.7 1004.3 0.0
27/11:00am 14.3 8.5 10.7 79 1.9 WNW 32 41 17 22 1004.4 1003.9 0.0
27/10:30am 14.0 8.5 11.9 87 1.1 W 32 39 17 21 1004.5 1004.0 0.0
27/10:00am 13.9 11.0 13.9 100 0.0 WSW 22 32 12 17 1004.5 1004.0 0.0
27/09:30am 12.1 7.1 12.1 100 0.0 W 30 39 16 21 1004.5 1004.0 0.0
27/09:00am 12.2 7.6 12.2 100 0.0 WNW 28 35 15 19 1004.2 1003.7 0.0
27/08:30am 12.0 8.1 12.0 100 0.0 WNW 24 33 13 18 1004.0 1003.5 0.0
27/08:00am 11.7 8.6 11.7 100 0.0 W 19 24 10 13 1004.0 1003.5 0.0
27/07:30am 11.0 7.5 11.0 100 0.0 WNW 20 28 11 15 1003.7 1003.3 0.0
27/07:00am 11.0 8.5 11.0 100 0.0 WNW 15 20 8 11 1003.6 1003.2 0.0
27/06:30am 11.2 8.7 11.2 100 0.0 WNW 15 19 8 10 1003.5 1003.1 0.0
27/06:00am 11.2 8.7 11.2 100 0.0 WNW 15 19 8 10 1003.4 1003.0 0.0
27/05:30am 11.4 9.0 11.4 100 0.0 WSW 15 24 8 13 1003.3 1002.9 0.0
27/05:00am 11.4 9.4 11.4 100 0.0 WSW 13 19 7 10 1003.2 1002.8 0.0
27/04:30am 11.4 9.0 11.4 100 0.0 WSW 15 20 8 11 1003.2 1002.8 0.0
27/04:00am 11.8 8.8 11.8 100 0.0 WSW 19 30 10 16 1003.2 1002.8 0.0
27/03:30am 12.4 8.2 12.4 100 0.0 WSW 26 35 14 19 1002.8 1002.4 0.0
27/03:00am 12.7 10.3 12.7 100 0.0 W 17 22 9 12 1003.2 1002.8 0.0
27/02:30am 12.9 9.6 12.9 100 0.0 WNW 22 28 12 15 1003.5 1003.1 0.0
27/02:00am 12.8 9.5 12.8 100 0.0 WNW 22 28 12 15 1003.7 1003.3 0.0
27/01:30am 12.8 8.7 12.8 100 0.0 W 26 32 14 17 1003.9 1003.4 0.0
27/01:00am 12.8 8.0 12.8 100 0.0 W 30 43 16 23 1004.0 1003.5 0.0
27/12:30am 12.5 8.3 12.5 100 0.0 WSW 26 35 14 19 1004.1 1003.6 0.0
27/12:00am 12.8 8.7 12.8 100 0.0 WSW 26 33 14 18 1004.3 1003.8 0.0
 
Date/Time
EDT
Temp
°C
App
Temp
°C
Dew
Point
°C
Rel
Hum
%
Delta-T
°C
Wind Press
QNH
hPa
Press
MSL
hPa
Rain since
9am
mm
Dir  Spd
km/h
Gust
km/h
Spd
kts
Gust
kts
26/11:30pm 12.9 7.7 12.9 100 0.0 WSW 32 43 17 23 1004.0 1003.5 0.0
26/11:00pm 13.4 10.3 13.4 100 0.0 SW 22 30 12 16 1004.0 1003.5 0.0
26/10:30pm 14.8 11.0 14.8 100 0.0 WSW 28 35 15 19 1004.0 1003.5 0.0
26/10:00pm 15.9 11.2 15.9 100 0.0 WSW 35 44 19 24 1003.5 1003.1 0.0
26/09:55pm 16.4 11.9 16.4 100 0.0 W 35 44 19 24 1003.4 1003.0 0.0
26/09:30pm 16.3 13.1 16.3 100 0.0 WNW 28 33 15 18 1003.1 1002.7 0.0
26/09:00pm 15.9 12.5 15.9 100 0.0 NW 28 33 15 18 1003.1 1002.7 0.0
26/08:30pm 16.7 14.0 16.7 100 0.0 NNW 26 32 14 17 1002.8 1002.4 0.0
26/08:00pm 16.4 14.9 16.4 100 0.0 NNW 19 20 10 11 1003.0 1002.6 0.0
26/07:30pm 16.8 15.5 16.8 100 0.0 N 19 22 10 12 1003.0 1002.6 0.0
26/07:00pm 17.2 15.9 17.2 100 0.0 NNW 20 24 11 13 1003.2 1002.8 0.0
26/06:30pm 16.8 15.5 16.8 100 0.0 NNW 19 20 10 11 1002.8 1002.4 0.0
26/06:00pm 16.6 11.8 16.6 100 0.0 NNW 37 46 20 25 1003.4 1003.0 0.0
26/05:43pm 16.2 5.9 16.2 100 0.0 NW 65 93 35 50 1003.5 1003.1 0.0
26/05:30pm 16.9 5.6 16.9 100 0.0 NW 72 96 39 52 1002.6 1002.2 0.0
26/05:22pm 18.3 7.6 12.7 70 3.2 NNW 61 96 33 52 1002.2 1001.8 0.0
26/05:20pm 19.8 9.8 12.1 61 4.3 NNW 56 89 30 48 1002.2 1001.8 0.0
26/05:19pm 20.7 11.3 11.6 56 5.1 NNW 52 85 28 46 1002.1 1001.7 0.0
26/05:00pm 21.5 13.3 11.8 54 5.5 N 46 56 25 30 1000.6 1000.1 0.0
26/04:30pm 21.4 13.7 12.0 55 5.3 N 44 56 24 30 1001.1 1000.6 0.0
26/04:00pm 21.8 15.2 12.6 56 5.3 N 39 48 21 26 1002.0 1001.6 0.0

Other formats

Comma delimited format used in spreadsheet applications
http://www.bom.gov.au/fwo/IDV60801/IDV60801.95845.axf

JavaScript Object Notation format (JSON) in row-major order
http://www.bom.gov.au/fwo/IDV60801/IDV60801.95845.json

Data quality

Most of these data are generated automatically and are frequently updated. Quality checks on data are not normally performed. It is possible for incorrect values to appear. Refer to information at About Latest Weather Observations and please check the disclaimer before using these data.